sensor_id;sensor_type;location;lat;lon;timestamp;P1;durP1;ratioP1;P2;durP2;ratioP2
8046;SDS011;67150;42.516;23.358;2023-06-22T00:01:17;5.93;;;5.50;;
8046;SDS011;67150;42.516;23.358;2023-06-22T00:03:44;6.27;;;5.77;;
8046;SDS011;67150;42.516;23.358;2023-06-22T00:06:12;6.00;;;5.47;;
8046;SDS011;67150;42.516;23.358;2023-06-22T00:08:39;6.13;;;5.53;;
8046;SDS011;67150;42.516;23.358;2023-06-22T00:11:07;6.00;;;5.53;;
8046;SDS011;67150;42.516;23.358;2023-06-22T00:13:36;6.13;;;5.63;;
8046;SDS011;67150;42.516;23.358;2023-06-22T00:16:04;6.20;;;5.60;;
8046;SDS011;67150;42.516;23.358;2023-06-22T00:18:31;6.13;;;5.67;;
8046;SDS011;67150;42.516;23.358;2023-06-22T00:20:59;6.00;;;5.50;;
8046;SDS011;67150;42.516;23.358;2023-06-22T00:23:26;6.40;;;5.60;;
8046;SDS011;67150;42.516;23.358;2023-06-22T00:25:54;8.37;;;6.00;;
8046;SDS011;67150;42.516;23.358;2023-06-22T00:28:21;6.43;;;5.93;;
8046;SDS011;67150;42.516;23.358;2023-06-22T00:30:50;6.00;;;5.50;;
8046;SDS011;67150;42.516;23.358;2023-06-22T00:33:17;6.00;;;5.50;;
8046;SDS011;67150;42.516;23.358;2023-06-22T00:35:44;6.23;;;5.73;;
8046;SDS011;67150;42.516;23.358;2023-06-22T00:38:12;5.93;;;5.43;;
8046;SDS011;67150;42.516;23.358;2023-06-22T00:40:39;6.17;;;5.57;;
8046;SDS011;67150;42.516;23.358;2023-06-22T00:43:06;7.17;;;6.00;;
8046;SDS011;67150;42.516;23.358;2023-06-22T00:45:34;6.87;;;6.23;;
8046;SDS011;67150;42.516;23.358;2023-06-22T00:48:03;7.37;;;6.70;;
8046;SDS011;67150;42.516;23.358;2023-06-22T00:50:31;6.37;;;5.83;;
8046;SDS011;67150;42.516;23.358;2023-06-22T00:53:00;6.50;;;6.00;;
8046;SDS011;67150;42.516;23.358;2023-06-22T00:55:33;6.03;;;5.53;;
8046;SDS011;67150;42.516;23.358;2023-06-22T00:58:04;5.77;;;5.30;;
8046;SDS011;67150;42.516;23.358;2023-06-22T01:00:33;6.20;;;5.70;;
8046;SDS011;67150;42.516;23.358;2023-06-22T01:03:01;5.70;;;5.30;;
8046;SDS011;67150;42.516;23.358;2023-06-22T01:05:34;6.10;;;5.70;;
8046;SDS011;67150;42.516;23.358;2023-06-22T01:08:05;6.07;;;5.57;;
8046;SDS011;67150;42.516;23.358;2023-06-22T01:10:43;6.60;;;6.10;;
8046;SDS011;67150;42.516;23.358;2023-06-22T01:13:16;6.40;;;5.80;;
8046;SDS011;67150;42.516;23.358;2023-06-22T01:15:49;5.80;;;5.40;;
8046;SDS011;67150;42.516;23.358;2023-06-22T01:18:23;5.60;;;5.20;;
8046;SDS011;67150;42.516;23.358;2023-06-22T01:20:55;6.03;;;5.43;;
8046;SDS011;67150;42.516;23.358;2023-06-22T01:23:26;5.83;;;5.43;;
8046;SDS011;67150;42.516;23.358;2023-06-22T01:26:01;6.60;;;6.00;;
8046;SDS011;67150;42.516;23.358;2023-06-22T01:28:44;6.30;;;5.67;;
8046;SDS011;67150;42.516;23.358;2023-06-22T01:31:14;6.33;;;5.73;;
8046;SDS011;67150;42.516;23.358;2023-06-22T01:33:44;6.03;;;5.53;;
8046;SDS011;67150;42.516;23.358;2023-06-22T01:36:15;6.60;;;6.00;;
8046;SDS011;67150;42.516;23.358;2023-06-22T01:38:44;6.20;;;5.70;;
8046;SDS011;67150;42.516;23.358;2023-06-22T01:41:13;5.97;;;5.57;;
8046;SDS011;67150;42.516;23.358;2023-06-22T01:43:44;6.07;;;5.57;;
8046;SDS011;67150;42.516;23.358;2023-06-22T01:46:13;6.23;;;5.73;;
8046;SDS011;67150;42.516;23.358;2023-06-22T01:48:41;6.37;;;5.87;;
8046;SDS011;67150;42.516;23.358;2023-06-22T01:51:08;6.23;;;5.73;;
8046;SDS011;67150;42.516;23.358;2023-06-22T01:53:36;6.43;;;5.90;;
8046;SDS011;67150;42.516;23.358;2023-06-22T01:56:04;6.27;;;5.80;;
8046;SDS011;67150;42.516;23.358;2023-06-22T01:58:32;6.50;;;5.83;;
8046;SDS011;67150;42.516;23.358;2023-06-22T02:01:03;6.33;;;5.83;;
8046;SDS011;67150;42.516;23.358;2023-06-22T02:03:37;6.10;;;5.63;;
8046;SDS011;67150;42.516;23.358;2023-06-22T02:06:10;6.40;;;5.90;;
8046;SDS011;67150;42.516;23.358;2023-06-22T02:08:45;6.50;;;6.00;;
8046;SDS011;67150;42.516;23.358;2023-06-22T02:11:16;5.77;;;5.37;;
8046;SDS011;67150;42.516;23.358;2023-06-22T02:13:47;6.23;;;5.73;;
8046;SDS011;67150;42.516;23.358;2023-06-22T02:16:16;6.80;;;6.13;;
8046;SDS011;67150;42.516;23.358;2023-06-22T02:18:47;6.50;;;6.00;;
8046;SDS011;67150;42.516;23.358;2023-06-22T02:21:17;6.60;;;6.00;;
8046;SDS011;67150;42.516;23.358;2023-06-22T02:23:44;6.43;;;5.93;;
8046;SDS011;67150;42.516;23.358;2023-06-22T02:26:12;6.40;;;5.90;;
8046;SDS011;67150;42.516;23.358;2023-06-22T02:28:40;6.47;;;5.97;;
8046;SDS011;67150;42.516;23.358;2023-06-22T02:31:07;6.07;;;5.67;;
8046;SDS011;67150;42.516;23.358;2023-06-22T02:33:36;6.43;;;5.83;;
8046;SDS011;67150;42.516;23.358;2023-06-22T02:36:04;6.30;;;5.80;;
8046;SDS011;67150;42.516;23.358;2023-06-22T02:38:34;6.77;;;6.20;;
8046;SDS011;67150;42.516;23.358;2023-06-22T02:41:02;8.13;;;6.37;;
8046;SDS011;67150;42.516;23.358;2023-06-22T02:43:29;6.43;;;5.93;;
8046;SDS011;67150;42.516;23.358;2023-06-22T02:45:56;6.90;;;6.30;;
8046;SDS011;67150;42.516;23.358;2023-06-22T02:48:24;7.03;;;6.43;;
8046;SDS011;67150;42.516;23.358;2023-06-22T02:50:53;6.97;;;6.37;;
8046;SDS011;67150;42.516;23.358;2023-06-22T02:53:20;6.53;;;6.03;;
8046;SDS011;67150;42.516;23.358;2023-06-22T02:55:47;6.50;;;6.00;;
8046;SDS011;67150;42.516;23.358;2023-06-22T02:58:15;7.57;;;6.80;;
8046;SDS011;67150;42.516;23.358;2023-06-22T03:00:42;6.53;;;6.03;;
8046;SDS011;67150;42.516;23.358;2023-06-22T03:03:09;6.87;;;6.27;;
8046;SDS011;67150;42.516;23.358;2023-06-22T03:05:36;6.70;;;6.10;;
8046;SDS011;67150;42.516;23.358;2023-06-22T03:08:07;6.40;;;5.90;;
8046;SDS011;67150;42.516;23.358;2023-06-22T03:10:34;6.77;;;6.27;;
8046;SDS011;67150;42.516;23.358;2023-06-22T03:13:01;6.70;;;6.20;;
8046;SDS011;67150;42.516;23.358;2023-06-22T03:15:29;6.77;;;6.27;;
8046;SDS011;67150;42.516;23.358;2023-06-22T03:17:57;6.80;;;6.20;;
8046;SDS011;67150;42.516;23.358;2023-06-22T03:20:24;6.97;;;6.37;;
8046;SDS011;67150;42.516;23.358;2023-06-22T03:22:52;7.30;;;6.60;;
8046;SDS011;67150;42.516;23.358;2023-06-22T03:25:21;7.13;;;6.53;;
8046;SDS011;67150;42.516;23.358;2023-06-22T03:27:48;6.90;;;6.40;;
8046;SDS011;67150;42.516;23.358;2023-06-22T03:30:16;7.23;;;6.53;;
8046;SDS011;67150;42.516;23.358;2023-06-22T03:32:43;7.90;;;7.13;;
8046;SDS011;67150;42.516;23.358;2023-06-22T03:35:12;7.03;;;6.40;;
8046;SDS011;67150;42.516;23.358;2023-06-22T03:37:39;6.50;;;6.00;;
8046;SDS011;67150;42.516;23.358;2023-06-22T03:40:07;6.60;;;6.10;;
8046;SDS011;67150;42.516;23.358;2023-06-22T03:42:37;6.67;;;6.17;;
8046;SDS011;67150;42.516;23.358;2023-06-22T03:45:05;6.87;;;6.37;;
8046;SDS011;67150;42.516;23.358;2023-06-22T03:47:33;6.97;;;6.37;;
8046;SDS011;67150;42.516;23.358;2023-06-22T03:50:00;7.17;;;6.47;;
8046;SDS011;67150;42.516;23.358;2023-06-22T03:52:29;7.27;;;6.43;;
8046;SDS011;67150;42.516;23.358;2023-06-22T03:54:56;6.90;;;6.40;;
8046;SDS011;67150;42.516;23.358;2023-06-22T03:57:23;7.20;;;6.50;;
8046;SDS011;67150;42.516;23.358;2023-06-22T03:59:56;7.20;;;6.60;;
8046;SDS011;67150;42.516;23.358;2023-06-22T04:02:24;7.33;;;6.80;;
8046;SDS011;67150;42.516;23.358;2023-06-22T04:04:51;6.60;;;6.10;;
8046;SDS011;67150;42.516;23.358;2023-06-22T04:07:19;6.97;;;6.37;;
8046;SDS011;67150;42.516;23.358;2023-06-22T04:09:46;7.77;;;7.00;;
8046;SDS011;67150;42.516;23.358;2023-06-22T04:12:13;7.20;;;6.60;;
8046;SDS011;67150;42.516;23.358;2023-06-22T04:14:41;7.10;;;6.50;;
8046;SDS011;67150;42.516;23.358;2023-06-22T04:17:10;7.13;;;6.53;;
8046;SDS011;67150;42.516;23.358;2023-06-22T04:19:40;6.87;;;6.27;;
8046;SDS011;67150;42.516;23.358;2023-06-22T04:22:07;6.80;;;6.20;;
8046;SDS011;67150;42.516;23.358;2023-06-22T04:24:35;7.00;;;6.40;;
8046;SDS011;67150;42.516;23.358;2023-06-22T04:27:03;7.47;;;6.33;;
8046;SDS011;67150;42.516;23.358;2023-06-22T04:29:31;7.40;;;6.80;;
8046;SDS011;67150;42.516;23.358;2023-06-22T04:31:58;7.37;;;6.77;;
8046;SDS011;67150;42.516;23.358;2023-06-22T04:34:32;6.87;;;6.30;;
8046;SDS011;67150;42.516;23.358;2023-06-22T04:36:59;7.40;;;6.70;;
8046;SDS011;67150;42.516;23.358;2023-06-22T04:39:26;7.23;;;6.60;;
8046;SDS011;67150;42.516;23.358;2023-06-22T04:41:54;7.60;;;6.90;;
8046;SDS011;67150;42.516;23.358;2023-06-22T04:44:25;7.20;;;6.60;;
8046;SDS011;67150;42.516;23.358;2023-06-22T04:46:53;7.57;;;6.93;;
8046;SDS011;67150;42.516;23.358;2023-06-22T04:49:25;7.57;;;6.87;;
8046;SDS011;67150;42.516;23.358;2023-06-22T04:51:59;7.67;;;7.07;;
8046;SDS011;67150;42.516;23.358;2023-06-22T04:54:27;7.20;;;6.70;;
8046;SDS011;67150;42.516;23.358;2023-06-22T04:56:54;7.53;;;6.83;;
8046;SDS011;67150;42.516;23.358;2023-06-22T04:59:23;7.90;;;7.20;;
8046;SDS011;67150;42.516;23.358;2023-06-22T05:01:54;7.47;;;6.87;;
8046;SDS011;67150;42.516;23.358;2023-06-22T05:04:21;7.60;;;7.00;;
8046;SDS011;67150;42.516;23.358;2023-06-22T05:06:50;7.30;;;6.70;;
8046;SDS011;67150;42.516;23.358;2023-06-22T05:09:19;7.50;;;6.90;;
8046;SDS011;67150;42.516;23.358;2023-06-22T05:11:46;7.53;;;6.93;;
8046;SDS011;67150;42.516;23.358;2023-06-22T05:14:14;7.90;;;7.20;;
8046;SDS011;67150;42.516;23.358;2023-06-22T05:16:42;7.40;;;6.80;;
8046;SDS011;67150;42.516;23.358;2023-06-22T05:19:09;8.47;;;7.00;;
8046;SDS011;67150;42.516;23.358;2023-06-22T05:21:37;7.57;;;6.97;;
8046;SDS011;67150;42.516;23.358;2023-06-22T05:24:05;7.73;;;7.13;;
8046;SDS011;67150;42.516;23.358;2023-06-22T05:26:34;7.33;;;6.73;;
8046;SDS011;67150;42.516;23.358;2023-06-22T05:29:02;7.77;;;7.07;;
8046;SDS011;67150;42.516;23.358;2023-06-22T05:31:29;7.40;;;6.80;;
8046;SDS011;67150;42.516;23.358;2023-06-22T05:33:57;7.57;;;6.97;;
8046;SDS011;67150;42.516;23.358;2023-06-22T05:36:25;7.80;;;7.20;;
8046;SDS011;67150;42.516;23.358;2023-06-22T05:38:52;8.10;;;7.30;;
8046;SDS011;67150;42.516;23.358;2023-06-22T05:41:20;8.33;;;7.53;;
8046;SDS011;67150;42.516;23.358;2023-06-22T05:43:48;9.23;;;7.77;;
8046;SDS011;67150;42.516;23.358;2023-06-22T05:46:16;8.00;;;7.40;;
8046;SDS011;67150;42.516;23.358;2023-06-22T05:48:44;7.83;;;7.13;;
8046;SDS011;67150;42.516;23.358;2023-06-22T05:51:11;8.37;;;7.57;;
8046;SDS011;67150;42.516;23.358;2023-06-22T05:53:38;7.97;;;7.37;;
8046;SDS011;67150;42.516;23.358;2023-06-22T05:56:06;8.10;;;7.40;;
8046;SDS011;67150;42.516;23.358;2023-06-22T05:58:33;8.00;;;7.37;;
8046;SDS011;67150;42.516;23.358;2023-06-22T06:01:03;8.10;;;7.40;;
8046;SDS011;67150;42.516;23.358;2023-06-22T06:03:31;8.10;;;7.40;;
8046;SDS011;67150;42.516;23.358;2023-06-22T06:05:58;8.37;;;7.67;;
8046;SDS011;67150;42.516;23.358;2023-06-22T06:08:27;8.27;;;7.60;;
8046;SDS011;67150;42.516;23.358;2023-06-22T06:10:55;7.80;;;7.20;;
8046;SDS011;67150;42.516;23.358;2023-06-22T06:13:22;8.63;;;7.93;;
8046;SDS011;67150;42.516;23.358;2023-06-22T06:15:50;8.33;;;7.53;;
8046;SDS011;67150;42.516;23.358;2023-06-22T06:18:21;8.70;;;8.00;;
8046;SDS011;67150;42.516;23.358;2023-06-22T06:20:49;8.47;;;7.70;;
8046;SDS011;67150;42.516;23.358;2023-06-22T06:23:16;8.30;;;7.67;;
8046;SDS011;67150;42.516;23.358;2023-06-22T06:25:44;8.53;;;7.73;;
8046;SDS011;67150;42.516;23.358;2023-06-22T06:28:11;9.03;;;8.23;;
8046;SDS011;67150;42.516;23.358;2023-06-22T06:30:38;8.50;;;7.77;;
8046;SDS011;67150;42.516;23.358;2023-06-22T06:33:06;8.27;;;7.60;;
8046;SDS011;67150;42.516;23.358;2023-06-22T06:35:35;8.43;;;7.73;;
8046;SDS011;67150;42.516;23.358;2023-06-22T06:38:03;7.83;;;7.23;;
8046;SDS011;67150;42.516;23.358;2023-06-22T06:40:30;7.97;;;7.37;;
8046;SDS011;67150;42.516;23.358;2023-06-22T06:42:57;8.37;;;7.67;;
8046;SDS011;67150;42.516;23.358;2023-06-22T06:45:25;8.80;;;8.10;;
8046;SDS011;67150;42.516;23.358;2023-06-22T06:47:54;8.70;;;8.00;;
8046;SDS011;67150;42.516;23.358;2023-06-22T06:50:21;8.33;;;7.53;;
8046;SDS011;67150;42.516;23.358;2023-06-22T06:52:50;8.23;;;7.63;;
8046;SDS011;67150;42.516;23.358;2023-06-22T06:55:18;9.20;;;8.40;;
8046;SDS011;67150;42.516;23.358;2023-06-22T06:57:45;8.90;;;8.17;;
8046;SDS011;67150;42.516;23.358;2023-06-22T07:00:14;8.87;;;8.07;;
8046;SDS011;67150;42.516;23.358;2023-06-22T07:02:42;8.50;;;7.80;;
8046;SDS011;67150;42.516;23.358;2023-06-22T07:05:13;8.90;;;8.10;;
8046;SDS011;67150;42.516;23.358;2023-06-22T07:07:40;8.53;;;7.83;;
8046;SDS011;67150;42.516;23.358;2023-06-22T07:10:09;8.73;;;8.03;;
8046;SDS011;67150;42.516;23.358;2023-06-22T07:12:38;8.60;;;7.90;;
8046;SDS011;67150;42.516;23.358;2023-06-22T07:15:06;8.60;;;7.90;;
8046;SDS011;67150;42.516;23.358;2023-06-22T07:17:34;8.27;;;7.67;;
8046;SDS011;67150;42.516;23.358;2023-06-22T07:20:02;8.37;;;7.77;;
8046;SDS011;67150;42.516;23.358;2023-06-22T07:22:35;8.70;;;8.00;;
8046;SDS011;67150;42.516;23.358;2023-06-22T07:25:03;9.23;;;8.43;;
8046;SDS011;67150;42.516;23.358;2023-06-22T07:27:36;8.50;;;7.80;;
8046;SDS011;67150;42.516;23.358;2023-06-22T07:30:05;8.33;;;7.63;;
8046;SDS011;67150;42.516;23.358;2023-06-22T07:32:33;9.03;;;8.30;;
8046;SDS011;67150;42.516;23.358;2023-06-22T07:35:01;8.53;;;7.83;;
8046;SDS011;67150;42.516;23.358;2023-06-22T07:37:30;9.20;;;8.40;;
8046;SDS011;67150;42.516;23.358;2023-06-22T07:39:58;9.10;;;8.40;;
8046;SDS011;67150;42.516;23.358;2023-06-22T07:42:26;9.30;;;8.60;;
8046;SDS011;67150;42.516;23.358;2023-06-22T07:44:55;9.40;;;8.60;;
8046;SDS011;67150;42.516;23.358;2023-06-22T07:47:23;9.67;;;8.93;;
8046;SDS011;67150;42.516;23.358;2023-06-22T07:49:53;9.33;;;8.60;;
8046;SDS011;67150;42.516;23.358;2023-06-22T07:52:23;9.53;;;8.70;;
8046;SDS011;67150;42.516;23.358;2023-06-22T07:54:52;9.40;;;8.60;;
8046;SDS011;67150;42.516;23.358;2023-06-22T07:57:19;9.63;;;8.73;;
8046;SDS011;67150;42.516;23.358;2023-06-22T07:59:47;9.27;;;8.57;;
8046;SDS011;67150;42.516;23.358;2023-06-22T08:02:16;9.00;;;8.30;;
8046;SDS011;67150;42.516;23.358;2023-06-22T08:04:43;9.53;;;8.73;;
8046;SDS011;67150;42.516;23.358;2023-06-22T08:07:11;9.40;;;8.60;;
8046;SDS011;67150;42.516;23.358;2023-06-22T08:09:38;9.17;;;8.40;;
8046;SDS011;67150;42.516;23.358;2023-06-22T08:12:12;9.53;;;8.73;;
8046;SDS011;67150;42.516;23.358;2023-06-22T08:14:41;8.93;;;8.23;;
8046;SDS011;67150;42.516;23.358;2023-06-22T08:17:09;9.17;;;8.47;;
8046;SDS011;67150;42.516;23.358;2023-06-22T08:19:39;9.53;;;8.73;;
8046;SDS011;67150;42.516;23.358;2023-06-22T08:22:06;9.93;;;9.13;;
8046;SDS011;67150;42.516;23.358;2023-06-22T08:24:34;9.47;;;8.57;;
8046;SDS011;67150;42.516;23.358;2023-06-22T08:27:01;9.40;;;8.63;;
8046;SDS011;67150;42.516;23.358;2023-06-22T08:29:28;9.40;;;8.50;;
8046;SDS011;67150;42.516;23.358;2023-06-22T08:31:56;9.37;;;8.33;;
8046;SDS011;67150;42.516;23.358;2023-06-22T08:34:23;9.40;;;8.50;;
8046;SDS011;67150;42.516;23.358;2023-06-22T08:36:54;9.37;;;8.57;;
8046;SDS011;67150;42.516;23.358;2023-06-22T08:39:22;8.90;;;8.20;;
8046;SDS011;67150;42.516;23.358;2023-06-22T08:41:49;9.47;;;8.67;;
8046;SDS011;67150;42.516;23.358;2023-06-22T08:44:17;8.93;;;8.07;;
8046;SDS011;67150;42.516;23.358;2023-06-22T08:46:45;9.47;;;8.70;;
8046;SDS011;67150;42.516;23.358;2023-06-22T08:49:13;9.93;;;9.07;;
8046;SDS011;67150;42.516;23.358;2023-06-22T08:51:44;9.03;;;8.23;;
8046;SDS011;67150;42.516;23.358;2023-06-22T08:54:16;9.50;;;8.70;;
8046;SDS011;67150;42.516;23.358;2023-06-22T08:56:43;9.80;;;9.00;;
8046;SDS011;67150;42.516;23.358;2023-06-22T08:59:10;9.57;;;8.77;;
8046;SDS011;67150;42.516;23.358;2023-06-22T09:01:37;10.67;;;9.43;;
8046;SDS011;67150;42.516;23.358;2023-06-22T09:04:05;10.17;;;9.13;;
8046;SDS011;67150;42.516;23.358;2023-06-22T09:06:34;9.93;;;9.13;;
8046;SDS011;67150;42.516;23.358;2023-06-22T09:09:06;10.00;;;9.00;;
8046;SDS011;67150;42.516;23.358;2023-06-22T09:11:35;10.23;;;9.43;;
8046;SDS011;67150;42.516;23.358;2023-06-22T09:14:02;10.60;;;9.60;;
8046;SDS011;67150;42.516;23.358;2023-06-22T09:16:31;10.80;;;9.70;;
8046;SDS011;67150;42.516;23.358;2023-06-22T09:18:58;10.23;;;9.33;;
8046;SDS011;67150;42.516;23.358;2023-06-22T09:21:25;10.50;;;9.60;;
8046;SDS011;67150;42.516;23.358;2023-06-22T09:23:53;11.43;;;10.30;;
8046;SDS011;67150;42.516;23.358;2023-06-22T09:26:20;10.77;;;9.83;;
8046;SDS011;67150;42.516;23.358;2023-06-22T09:28:50;12.00;;;10.90;;
8046;SDS011;67150;42.516;23.358;2023-06-22T09:31:18;11.47;;;10.47;;
8046;SDS011;67150;42.516;23.358;2023-06-22T09:33:51;11.30;;;10.20;;
8046;SDS011;67150;42.516;23.358;2023-06-22T09:36:19;12.27;;;11.17;;
8046;SDS011;67150;42.516;23.358;2023-06-22T09:38:47;12.40;;;11.33;;
8046;SDS011;67150;42.516;23.358;2023-06-22T09:41:24;11.50;;;10.60;;
8046;SDS011;67150;42.516;23.358;2023-06-22T09:43:53;11.43;;;10.43;;
8046;SDS011;67150;42.516;23.358;2023-06-22T09:46:23;12.87;;;11.57;;
8046;SDS011;67150;42.516;23.358;2023-06-22T09:48:51;11.47;;;10.47;;
8046;SDS011;67150;42.516;23.358;2023-06-22T09:51:18;11.00;;;9.90;;
8046;SDS011;67150;42.516;23.358;2023-06-22T09:53:47;11.03;;;10.13;;
8046;SDS011;67150;42.516;23.358;2023-06-22T09:56:14;13.83;;;10.20;;
8046;SDS011;67150;42.516;23.358;2023-06-22T09:58:42;10.97;;;10.07;;
8046;SDS011;67150;42.516;23.358;2023-06-22T10:01:12;10.50;;;9.60;;
8046;SDS011;67150;42.516;23.358;2023-06-22T10:03:40;10.60;;;9.70;;
8046;SDS011;67150;42.516;23.358;2023-06-22T10:06:07;10.10;;;9.30;;
8046;SDS011;67150;42.516;23.358;2023-06-22T10:08:35;10.50;;;9.60;;
8046;SDS011;67150;42.516;23.358;2023-06-22T10:11:03;10.17;;;9.23;;
8046;SDS011;67150;42.516;23.358;2023-06-22T10:13:30;10.23;;;9.40;;
8046;SDS011;67150;42.516;23.358;2023-06-22T10:15:58;10.27;;;9.37;;
8046;SDS011;67150;42.516;23.358;2023-06-22T10:18:27;10.50;;;9.63;;
8046;SDS011;67150;42.516;23.358;2023-06-22T10:20:56;9.97;;;9.17;;
8046;SDS011;67150;42.516;23.358;2023-06-22T10:23:23;10.13;;;9.13;;
8046;SDS011;67150;42.516;23.358;2023-06-22T10:25:51;10.27;;;9.47;;
8046;SDS011;67150;42.516;23.358;2023-06-22T10:28:18;10.40;;;9.50;;
8046;SDS011;67150;42.516;23.358;2023-06-22T10:30:45;10.20;;;9.30;;
8046;SDS011;67150;42.516;23.358;2023-06-22T10:33:13;10.13;;;9.33;;
8046;SDS011;67150;42.516;23.358;2023-06-22T10:35:42;9.50;;;8.60;;
8046;SDS011;67150;42.516;23.358;2023-06-22T10:38:09;10.23;;;9.33;;
8046;SDS011;67150;42.516;23.358;2023-06-22T10:40:36;9.97;;;9.10;;
8046;SDS011;67150;42.516;23.358;2023-06-22T10:43:05;9.90;;;9.07;;
8046;SDS011;67150;42.516;23.358;2023-06-22T10:45:32;9.90;;;9.03;;
8046;SDS011;67150;42.516;23.358;2023-06-22T10:47:59;9.53;;;8.73;;
8046;SDS011;67150;42.516;23.358;2023-06-22T10:50:27;10.10;;;9.20;;
8046;SDS011;67150;42.516;23.358;2023-06-22T10:52:55;9.77;;;8.97;;
8046;SDS011;67150;42.516;23.358;2023-06-22T10:55:24;9.90;;;9.10;;
8046;SDS011;67150;42.516;23.358;2023-06-22T10:57:51;9.50;;;8.70;;
8046;SDS011;67150;42.516;23.358;2023-06-22T11:00:19;9.73;;;8.77;;
8046;SDS011;67150;42.516;23.358;2023-06-22T11:02:46;9.40;;;8.40;;
8046;SDS011;67150;42.516;23.358;2023-06-22T11:05:14;10.27;;;9.20;;
8046;SDS011;67150;42.516;23.358;2023-06-22T11:07:42;9.30;;;8.50;;
8046;SDS011;67150;42.516;23.358;2023-06-22T11:10:11;9.30;;;8.57;;
8046;SDS011;67150;42.516;23.358;2023-06-22T11:12:39;9.53;;;8.53;;
8046;SDS011;67150;42.516;23.358;2023-06-22T11:15:07;9.80;;;8.97;;
8046;SDS011;67150;42.516;23.358;2023-06-22T11:17:35;9.77;;;8.80;;
8046;SDS011;67150;42.516;23.358;2023-06-22T11:20:03;9.53;;;8.73;;
8046;SDS011;67150;42.516;23.358;2023-06-22T11:22:36;8.67;;;7.97;;
8046;SDS011;67150;42.516;23.358;2023-06-22T11:25:04;8.77;;;8.07;;
8046;SDS011;67150;42.516;23.358;2023-06-22T11:27:34;9.37;;;8.57;;
8046;SDS011;67150;42.516;23.358;2023-06-22T11:30:02;8.73;;;7.93;;
8046;SDS011;67150;42.516;23.358;2023-06-22T11:32:29;8.67;;;7.97;;
8046;SDS011;67150;42.516;23.358;2023-06-22T11:34:57;8.70;;;7.90;;
8046;SDS011;67150;42.516;23.358;2023-06-22T11:37:25;9.13;;;8.33;;
8046;SDS011;67150;42.516;23.358;2023-06-22T11:39:53;8.60;;;7.90;;
8046;SDS011;67150;42.516;23.358;2023-06-22T11:42:20;9.00;;;8.07;;
8046;SDS011;67150;42.516;23.358;2023-06-22T11:44:50;9.23;;;8.33;;
8046;SDS011;67150;42.516;23.358;2023-06-22T11:47:18;8.60;;;7.93;;
8046;SDS011;67150;42.516;23.358;2023-06-22T11:49:46;9.00;;;8.10;;
8046;SDS011;67150;42.516;23.358;2023-06-22T11:52:13;9.20;;;8.40;;
8046;SDS011;67150;42.516;23.358;2023-06-22T11:54:43;8.53;;;7.87;;
8046;SDS011;67150;42.516;23.358;2023-06-22T11:57:11;9.20;;;8.40;;
8046;SDS011;67150;42.516;23.358;2023-06-22T11:59:38;9.00;;;8.10;;
8046;SDS011;67150;42.516;23.358;2023-06-22T12:02:07;9.27;;;8.30;;
8046;SDS011;67150;42.516;23.358;2023-06-22T12:04:34;8.97;;;8.17;;
8046;SDS011;67150;42.516;23.358;2023-06-22T12:07:03;8.73;;;8.03;;
8046;SDS011;67150;42.516;23.358;2023-06-22T12:09:30;9.03;;;8.23;;
8046;SDS011;67150;42.516;23.358;2023-06-22T12:11:58;8.97;;;8.17;;
8046;SDS011;67150;42.516;23.358;2023-06-22T12:14:25;10.70;;;8.40;;
8046;SDS011;67150;42.516;23.358;2023-06-22T12:16:53;9.20;;;8.40;;
8046;SDS011;67150;42.516;23.358;2023-06-22T12:19:22;9.40;;;8.60;;
8046;SDS011;67150;42.516;23.358;2023-06-22T12:21:49;9.17;;;8.37;;
8046;SDS011;67150;42.516;23.358;2023-06-22T12:24:16;9.90;;;8.90;;
8046;SDS011;67150;42.516;23.358;2023-06-22T12:26:44;10.07;;;9.00;;
8046;SDS011;67150;42.516;23.358;2023-06-22T12:29:11;9.37;;;8.57;;
8046;SDS011;67150;42.516;23.358;2023-06-22T12:31:38;9.27;;;8.50;;
8046;SDS011;67150;42.516;23.358;2023-06-22T12:34:07;9.60;;;8.70;;
8046;SDS011;67150;42.516;23.358;2023-06-22T12:36:35;9.37;;;8.57;;
8046;SDS011;67150;42.516;23.358;2023-06-22T12:39:03;9.70;;;8.80;;
8046;SDS011;67150;42.516;23.358;2023-06-22T12:41:31;10.80;;;9.70;;
8046;SDS011;67150;42.516;23.358;2023-06-22T12:43:58;9.77;;;8.87;;
8046;SDS011;67150;42.516;23.358;2023-06-22T12:46:26;10.40;;;9.50;;
8046;SDS011;67150;42.516;23.358;2023-06-22T12:48:53;11.20;;;9.33;;
8046;SDS011;67150;42.516;23.358;2023-06-22T12:51:21;10.03;;;9.13;;
8046;SDS011;67150;42.516;23.358;2023-06-22T12:53:50;10.50;;;9.60;;
8046;SDS011;67150;42.516;23.358;2023-06-22T12:56:17;10.17;;;9.20;;
8046;SDS011;67150;42.516;23.358;2023-06-22T12:58:45;10.60;;;9.60;;
8046;SDS011;67150;42.516;23.358;2023-06-22T13:01:16;10.20;;;9.10;;
8046;SDS011;67150;42.516;23.358;2023-06-22T13:03:44;13.10;;;9.17;;
8046;SDS011;67150;42.516;23.358;2023-06-22T13:06:11;11.70;;;9.87;;
8046;SDS011;67150;42.516;23.358;2023-06-22T13:08:39;9.90;;;9.10;;
8046;SDS011;67150;42.516;23.358;2023-06-22T13:11:11;10.40;;;9.00;;
8046;SDS011;67150;42.516;23.358;2023-06-22T13:13:39;11.80;;;9.47;;
8046;SDS011;67150;42.516;23.358;2023-06-22T13:16:07;10.60;;;9.50;;
8046;SDS011;67150;42.516;23.358;2023-06-22T13:18:34;10.10;;;9.10;;
8046;SDS011;67150;42.516;23.358;2023-06-22T13:21:02;9.80;;;8.80;;
8046;SDS011;67150;42.516;23.358;2023-06-22T13:23:30;10.17;;;9.27;;
8046;SDS011;67150;42.516;23.358;2023-06-22T13:25:59;10.90;;;9.80;;
8046;SDS011;67150;42.516;23.358;2023-06-22T13:28:28;10.47;;;9.37;;
8046;SDS011;67150;42.516;23.358;2023-06-22T13:30:56;10.13;;;9.13;;
8046;SDS011;67150;42.516;23.358;2023-06-22T13:33:27;12.70;;;9.03;;
8046;SDS011;67150;42.516;23.358;2023-06-22T13:35:54;10.33;;;8.93;;
8046;SDS011;67150;42.516;23.358;2023-06-22T13:38:21;10.57;;;9.23;;
8046;SDS011;67150;42.516;23.358;2023-06-22T13:40:49;10.33;;;9.33;;
8046;SDS011;67150;42.516;23.358;2023-06-22T13:43:16;10.97;;;9.77;;
8046;SDS011;67150;42.516;23.358;2023-06-22T13:45:46;11.77;;;9.43;;
8046;SDS011;67150;42.516;23.358;2023-06-22T13:48:13;10.70;;;8.77;;
8046;SDS011;67150;42.516;23.358;2023-06-22T13:50:42;10.73;;;9.63;;
8046;SDS011;67150;42.516;23.358;2023-06-22T13:53:10;11.20;;;9.50;;
8046;SDS011;67150;42.516;23.358;2023-06-22T13:55:37;13.33;;;9.33;;
8046;SDS011;67150;42.516;23.358;2023-06-22T13:58:05;10.17;;;8.50;;
8046;SDS011;67150;42.516;23.358;2023-06-22T14:00:32;10.13;;;9.13;;
8046;SDS011;67150;42.516;23.358;2023-06-22T14:03:01;11.57;;;9.40;;
8046;SDS011;67150;42.516;23.358;2023-06-22T14:05:29;10.10;;;9.17;;
8046;SDS011;67150;42.516;23.358;2023-06-22T14:07:56;9.27;;;8.47;;
8046;SDS011;67150;42.516;23.358;2023-06-22T14:10:24;9.20;;;8.30;;
8046;SDS011;67150;42.516;23.358;2023-06-22T14:12:51;9.37;;;8.40;;
8046;SDS011;67150;42.516;23.358;2023-06-22T14:15:19;8.83;;;8.00;;
8046;SDS011;67150;42.516;23.358;2023-06-22T14:17:47;9.80;;;8.77;;
8046;SDS011;67150;42.516;23.358;2023-06-22T14:20:16;9.47;;;8.57;;
8046;SDS011;67150;42.516;23.358;2023-06-22T14:22:44;9.13;;;8.23;;
8046;SDS011;67150;42.516;23.358;2023-06-22T14:25:11;9.03;;;8.23;;
8046;SDS011;67150;42.516;23.358;2023-06-22T14:27:38;9.30;;;8.40;;
8046;SDS011;67150;42.516;23.358;2023-06-22T14:30:06;9.23;;;8.33;;
8046;SDS011;67150;42.516;23.358;2023-06-22T14:32:34;9.93;;;8.93;;
8046;SDS011;67150;42.516;23.358;2023-06-22T14:35:01;9.47;;;8.47;;
8046;SDS011;67150;42.516;23.358;2023-06-22T14:37:30;9.63;;;8.63;;
8046;SDS011;67150;42.516;23.358;2023-06-22T14:39:57;9.47;;;8.50;;
8046;SDS011;67150;42.516;23.358;2023-06-22T14:42:24;10.07;;;8.63;;
8046;SDS011;67150;42.516;23.358;2023-06-22T14:44:54;9.27;;;8.37;;
8046;SDS011;67150;42.516;23.358;2023-06-22T14:47:21;9.40;;;8.50;;
8046;SDS011;67150;42.516;23.358;2023-06-22T14:49:50;9.40;;;8.60;;
8046;SDS011;67150;42.516;23.358;2023-06-22T14:52:17;9.80;;;8.80;;